sensor_id;sensor_type;location;lat;lon;timestamp;P1;durP1;ratioP1;P2;durP2;ratioP2
36211;SDS011;22247;48.586;13.492;2023-11-19T00:01:28;26.00;;;12.73;;
36211;SDS011;22247;48.586;13.492;2023-11-19T00:03:53;22.98;;;12.00;;
36211;SDS011;22247;48.586;13.492;2023-11-19T00:06:18;24.50;;;10.98;;
36211;SDS011;22247;48.586;13.492;2023-11-19T00:08:43;24.08;;;11.85;;
36211;SDS011;22247;48.586;13.492;2023-11-19T00:11:08;25.30;;;11.55;;
36211;SDS011;22247;48.586;13.492;2023-11-19T00:15:58;25.00;;;12.52;;
36211;SDS011;22247;48.586;13.492;2023-11-19T00:18:28;26.00;;;12.00;;
36211;SDS011;22247;48.586;13.492;2023-11-19T00:20:53;23.67;;;11.45;;
36211;SDS011;22247;48.586;13.492;2023-11-19T00:23:18;22.50;;;10.88;;
36211;SDS011;22247;48.586;13.492;2023-11-19T00:25:43;23.08;;;11.35;;
36211;SDS011;22247;48.586;13.492;2023-11-19T00:30:33;24.25;;;11.52;;
36211;SDS011;22247;48.586;13.492;2023-11-19T00:32:58;21.77;;;12.00;;
36211;SDS011;22247;48.586;13.492;2023-11-19T00:35:23;22.20;;;11.63;;
36211;SDS011;22247;48.586;13.492;2023-11-19T00:37:48;24.25;;;11.50;;
36211;SDS011;22247;48.586;13.492;2023-11-19T00:40:14;25.50;;;12.02;;
36211;SDS011;22247;48.586;13.492;2023-11-19T00:42:41;26.00;;;12.70;;
36211;SDS011;22247;48.586;13.492;2023-11-19T00:45:07;21.83;;;10.68;;
36211;SDS011;22247;48.586;13.492;2023-11-19T00:47:33;24.10;;;12.18;;
36211;SDS011;22247;48.586;13.492;2023-11-19T00:49:59;23.77;;;11.38;;
36211;SDS011;22247;48.586;13.492;2023-11-19T00:52:24;24.42;;;11.90;;
36211;SDS011;22247;48.586;13.492;2023-11-19T00:54:49;25.02;;;12.05;;
36211;SDS011;22247;48.586;13.492;2023-11-19T00:57:14;25.15;;;12.13;;
36211;SDS011;22247;48.586;13.492;2023-11-19T00:59:41;23.92;;;12.10;;
36211;SDS011;22247;48.586;13.492;2023-11-19T01:02:06;21.90;;;11.48;;
36211;SDS011;22247;48.586;13.492;2023-11-19T01:04:34;22.35;;;11.07;;
36211;SDS011;22247;48.586;13.492;2023-11-19T01:06:59;22.60;;;11.05;;
36211;SDS011;22247;48.586;13.492;2023-11-19T01:09:24;22.17;;;11.50;;
36211;SDS011;22247;48.586;13.492;2023-11-19T01:11:50;24.33;;;11.27;;
36211;SDS011;22247;48.586;13.492;2023-11-19T01:14:15;26.63;;;11.80;;
36211;SDS011;22247;48.586;13.492;2023-11-19T01:16:41;25.08;;;12.25;;
36211;SDS011;22247;48.586;13.492;2023-11-19T01:21:31;24.13;;;12.10;;
36211;SDS011;22247;48.586;13.492;2023-11-19T01:23:57;24.50;;;11.80;;
36211;SDS011;22247;48.586;13.492;2023-11-19T01:26:23;25.10;;;12.35;;
36211;SDS011;22247;48.586;13.492;2023-11-19T01:28:48;28.17;;;12.93;;
36211;SDS011;22247;48.586;13.492;2023-11-19T01:31:16;27.20;;;12.85;;
36211;SDS011;22247;48.586;13.492;2023-11-19T01:33:41;24.42;;;12.27;;
36211;SDS011;22247;48.586;13.492;2023-11-19T01:38:32;23.23;;;11.93;;
36211;SDS011;22247;48.586;13.492;2023-11-19T01:40:57;29.23;;;12.52;;
36211;SDS011;22247;48.586;13.492;2023-11-19T01:45:57;30.33;;;12.73;;
36211;SDS011;22247;48.586;13.492;2023-11-19T01:48:22;26.13;;;12.23;;
36211;SDS011;22247;48.586;13.492;2023-11-19T01:50:47;22.60;;;11.82;;
36211;SDS011;22247;48.586;13.492;2023-11-19T01:53:12;22.63;;;11.85;;
36211;SDS011;22247;48.586;13.492;2023-11-19T01:55:37;24.27;;;12.88;;
36211;SDS011;22247;48.586;13.492;2023-11-19T01:58:02;24.15;;;12.30;;
36211;SDS011;22247;48.586;13.492;2023-11-19T02:02:52;26.58;;;11.50;;
36211;SDS011;22247;48.586;13.492;2023-11-19T02:05:20;23.33;;;11.85;;
36211;SDS011;22247;48.586;13.492;2023-11-19T02:07:45;21.25;;;10.65;;
36211;SDS011;22247;48.586;13.492;2023-11-19T02:10:10;19.88;;;10.65;;
36211;SDS011;22247;48.586;13.492;2023-11-19T02:12:36;20.02;;;10.60;;
36211;SDS011;22247;48.586;13.492;2023-11-19T02:15:02;21.35;;;10.18;;
36211;SDS011;22247;48.586;13.492;2023-11-19T02:17:28;19.65;;;9.38;;
36211;SDS011;22247;48.586;13.492;2023-11-19T02:19:55;20.92;;;10.55;;
36211;SDS011;22247;48.586;13.492;2023-11-19T02:22:26;24.02;;;10.68;;
36211;SDS011;22247;48.586;13.492;2023-11-19T02:24:52;21.55;;;11.45;;
36211;SDS011;22247;48.586;13.492;2023-11-19T02:27:27;20.95;;;9.73;;
36211;SDS011;22247;48.586;13.492;2023-11-19T02:29:55;26.08;;;11.20;;
36211;SDS011;22247;48.586;13.492;2023-11-19T02:32:20;21.58;;;10.93;;
36211;SDS011;22247;48.586;13.492;2023-11-19T02:34:45;23.80;;;11.30;;
36211;SDS011;22247;48.586;13.492;2023-11-19T02:37:10;23.15;;;11.77;;
36211;SDS011;22247;48.586;13.492;2023-11-19T02:39:35;22.20;;;10.70;;
36211;SDS011;22247;48.586;13.492;2023-11-19T02:42:00;23.38;;;11.00;;
36211;SDS011;22247;48.586;13.492;2023-11-19T02:44:25;23.90;;;11.63;;
36211;SDS011;22247;48.586;13.492;2023-11-19T02:46:53;22.98;;;11.13;;
36211;SDS011;22247;48.586;13.492;2023-11-19T02:49:18;17.83;;;9.52;;
36211;SDS011;22247;48.586;13.492;2023-11-19T02:51:47;21.77;;;9.85;;
36211;SDS011;22247;48.586;13.492;2023-11-19T02:54:12;17.38;;;9.15;;
36211;SDS011;22247;48.586;13.492;2023-11-19T02:56:42;20.15;;;9.35;;
36211;SDS011;22247;48.586;13.492;2023-11-19T02:59:07;17.08;;;9.05;;
36211;SDS011;22247;48.586;13.492;2023-11-19T03:01:51;16.63;;;8.55;;
36211;SDS011;22247;48.586;13.492;2023-11-19T03:04:18;18.83;;;8.90;;
36211;SDS011;22247;48.586;13.492;2023-11-19T03:06:47;16.58;;;8.40;;
36211;SDS011;22247;48.586;13.492;2023-11-19T03:09:12;17.67;;;9.52;;
36211;SDS011;22247;48.586;13.492;2023-11-19T03:11:37;18.08;;;8.40;;
36211;SDS011;22247;48.586;13.492;2023-11-19T03:14:02;22.08;;;10.20;;
36211;SDS011;22247;48.586;13.492;2023-11-19T03:16:30;20.55;;;9.18;;
36211;SDS011;22247;48.586;13.492;2023-11-19T03:18:57;19.05;;;8.80;;
36211;SDS011;22247;48.586;13.492;2023-11-19T03:21:30;16.10;;;8.05;;
36211;SDS011;22247;48.586;13.492;2023-11-19T03:23:56;21.50;;;9.00;;
36211;SDS011;22247;48.586;13.492;2023-11-19T03:26:22;22.95;;;8.57;;
36211;SDS011;22247;48.586;13.492;2023-11-19T03:28:50;16.25;;;8.25;;
36211;SDS011;22247;48.586;13.492;2023-11-19T03:31:15;15.40;;;8.32;;
36211;SDS011;22247;48.586;13.492;2023-11-19T03:33:40;15.68;;;8.25;;
36211;SDS011;22247;48.586;13.492;2023-11-19T03:36:07;17.23;;;8.73;;
36211;SDS011;22247;48.586;13.492;2023-11-19T03:38:33;18.05;;;9.23;;
36211;SDS011;22247;48.586;13.492;2023-11-19T03:40:58;18.90;;;8.40;;
36211;SDS011;22247;48.586;13.492;2023-11-19T03:43:25;18.35;;;9.18;;
36211;SDS011;22247;48.586;13.492;2023-11-19T03:45:51;16.52;;;8.60;;
36211;SDS011;22247;48.586;13.492;2023-11-19T03:50:41;18.13;;;9.07;;
36211;SDS011;22247;48.586;13.492;2023-11-19T03:53:06;15.23;;;8.00;;
36211;SDS011;22247;48.586;13.492;2023-11-19T03:55:34;17.33;;;8.48;;
36211;SDS011;22247;48.586;13.492;2023-11-19T03:57:59;21.60;;;8.93;;
36211;SDS011;22247;48.586;13.492;2023-11-19T04:00:23;15.23;;;7.95;;
36211;SDS011;22247;48.586;13.492;2023-11-19T04:02:48;15.85;;;8.93;;
36211;SDS011;22247;48.586;13.492;2023-11-19T04:05:13;21.13;;;10.02;;
36211;SDS011;22247;48.586;13.492;2023-11-19T04:07:41;20.05;;;9.15;;
36211;SDS011;22247;48.586;13.492;2023-11-19T04:10:06;17.42;;;8.95;;
36211;SDS011;22247;48.586;13.492;2023-11-19T04:14:56;18.45;;;8.65;;
36211;SDS011;22247;48.586;13.492;2023-11-19T04:17:21;18.92;;;9.52;;
36211;SDS011;22247;48.586;13.492;2023-11-19T04:19:49;16.70;;;8.70;;
36211;SDS011;22247;48.586;13.492;2023-11-19T04:22:16;17.55;;;8.05;;
36211;SDS011;22247;48.586;13.492;2023-11-19T04:24:45;15.73;;;8.50;;
36211;SDS011;22247;48.586;13.492;2023-11-19T04:27:10;16.73;;;8.73;;
36211;SDS011;22247;48.586;13.492;2023-11-19T04:29:35;16.65;;;7.63;;
36211;SDS011;22247;48.586;13.492;2023-11-19T04:34:25;16.45;;;7.70;;
36211;SDS011;22247;48.586;13.492;2023-11-19T04:36:50;15.77;;;7.93;;
36211;SDS011;22247;48.586;13.492;2023-11-19T04:39:18;16.25;;;8.20;;
36211;SDS011;22247;48.586;13.492;2023-11-19T04:41:46;17.50;;;6.90;;
36211;SDS011;22247;48.586;13.492;2023-11-19T04:44:12;14.38;;;7.68;;
36211;SDS011;22247;48.586;13.492;2023-11-19T04:46:37;15.23;;;7.95;;
36211;SDS011;22247;48.586;13.492;2023-11-19T04:49:02;17.20;;;7.88;;
36211;SDS011;22247;48.586;13.492;2023-11-19T04:51:31;14.25;;;7.53;;
36211;SDS011;22247;48.586;13.492;2023-11-19T04:53:56;14.30;;;6.90;;
36211;SDS011;22247;48.586;13.492;2023-11-19T04:56:21;17.75;;;8.85;;
36211;SDS011;22247;48.586;13.492;2023-11-19T04:58:47;13.10;;;7.07;;
36211;SDS011;22247;48.586;13.492;2023-11-19T05:01:13;16.25;;;7.63;;
36211;SDS011;22247;48.586;13.492;2023-11-19T05:03:44;16.33;;;7.18;;
36211;SDS011;22247;48.586;13.492;2023-11-19T05:06:09;15.88;;;7.65;;
36211;SDS011;22247;48.586;13.492;2023-11-19T05:08:37;14.70;;;7.28;;
36211;SDS011;22247;48.586;13.492;2023-11-19T05:11:04;12.38;;;6.57;;
36211;SDS011;22247;48.586;13.492;2023-11-19T05:13:29;13.45;;;7.20;;
36211;SDS011;22247;48.586;13.492;2023-11-19T05:15:54;15.18;;;7.65;;
36211;SDS011;22247;48.586;13.492;2023-11-19T05:18:20;17.38;;;7.47;;
36211;SDS011;22247;48.586;13.492;2023-11-19T05:20:45;15.07;;;7.78;;
36211;SDS011;22247;48.586;13.492;2023-11-19T05:23:10;13.40;;;6.90;;
36211;SDS011;22247;48.586;13.492;2023-11-19T05:25:36;19.88;;;8.75;;
36211;SDS011;22247;48.586;13.492;2023-11-19T05:28:03;14.63;;;6.68;;
36211;SDS011;22247;48.586;13.492;2023-11-19T05:30:28;14.50;;;6.55;;
36211;SDS011;22247;48.586;13.492;2023-11-19T05:32:56;11.73;;;5.93;;
36211;SDS011;22247;48.586;13.492;2023-11-19T05:35:24;10.65;;;6.07;;
36211;SDS011;22247;48.586;13.492;2023-11-19T05:37:49;8.90;;;4.32;;
36211;SDS011;22247;48.586;13.492;2023-11-19T05:40:14;10.70;;;4.95;;
36211;SDS011;22247;48.586;13.492;2023-11-19T05:42:40;10.25;;;5.28;;
36211;SDS011;22247;48.586;13.492;2023-11-19T05:45:07;8.00;;;4.20;;
36211;SDS011;22247;48.586;13.492;2023-11-19T05:47:33;7.93;;;4.15;;
36211;SDS011;22247;48.586;13.492;2023-11-19T05:50:00;9.77;;;4.18;;
36211;SDS011;22247;48.586;13.492;2023-11-19T05:52:25;7.97;;;4.35;;
36211;SDS011;22247;48.586;13.492;2023-11-19T05:54:52;10.68;;;4.68;;
36211;SDS011;22247;48.586;13.492;2023-11-19T05:57:17;8.23;;;4.35;;
36211;SDS011;22247;48.586;13.492;2023-11-19T05:59:48;8.10;;;4.20;;
36211;SDS011;22247;48.586;13.492;2023-11-19T06:02:13;7.57;;;4.32;;
36211;SDS011;22247;48.586;13.492;2023-11-19T06:04:38;10.05;;;4.88;;
36211;SDS011;22247;48.586;13.492;2023-11-19T06:09:29;10.23;;;4.72;;
36211;SDS011;22247;48.586;13.492;2023-11-19T06:11:54;10.95;;;5.13;;
36211;SDS011;22247;48.586;13.492;2023-11-19T06:14:21;10.35;;;5.50;;
36211;SDS011;22247;48.586;13.492;2023-11-19T06:16:48;10.88;;;5.25;;
36211;SDS011;22247;48.586;13.492;2023-11-19T06:19:13;9.95;;;5.38;;
36211;SDS011;22247;48.586;13.492;2023-11-19T06:21:38;9.07;;;4.95;;
36211;SDS011;22247;48.586;13.492;2023-11-19T06:24:03;12.23;;;5.40;;
36211;SDS011;22247;48.586;13.492;2023-11-19T06:28:53;9.35;;;4.75;;
36211;SDS011;22247;48.586;13.492;2023-11-19T06:31:18;26.40;;;7.05;;
36211;SDS011;22247;48.586;13.492;2023-11-19T06:33:43;12.23;;;5.47;;
36211;SDS011;22247;48.586;13.492;2023-11-19T06:36:08;12.23;;;4.85;;
36211;SDS011;22247;48.586;13.492;2023-11-19T06:40:58;7.05;;;3.97;;
36211;SDS011;22247;48.586;13.492;2023-11-19T06:43:23;7.70;;;4.18;;
36211;SDS011;22247;48.586;13.492;2023-11-19T06:45:48;7.38;;;4.18;;
36211;SDS011;22247;48.586;13.492;2023-11-19T06:48:13;7.22;;;4.10;;
36211;SDS011;22247;48.586;13.492;2023-11-19T06:50:38;8.57;;;4.40;;
36211;SDS011;22247;48.586;13.492;2023-11-19T06:53:03;8.43;;;4.50;;
36211;SDS011;22247;48.586;13.492;2023-11-19T06:55:30;9.00;;;4.63;;
36211;SDS011;22247;48.586;13.492;2023-11-19T06:57:59;8.85;;;4.57;;
36211;SDS011;22247;48.586;13.492;2023-11-19T07:00:26;7.78;;;4.57;;
36211;SDS011;22247;48.586;13.492;2023-11-19T07:02:51;9.20;;;5.15;;
36211;SDS011;22247;48.586;13.492;2023-11-19T07:05:16;7.07;;;3.90;;
36211;SDS011;22247;48.586;13.492;2023-11-19T07:07:41;9.43;;;5.03;;
36211;SDS011;22247;48.586;13.492;2023-11-19T07:10:06;9.88;;;5.18;;
36211;SDS011;22247;48.586;13.492;2023-11-19T07:12:33;10.65;;;5.07;;
36211;SDS011;22247;48.586;13.492;2023-11-19T07:14:59;9.52;;;5.22;;
36211;SDS011;22247;48.586;13.492;2023-11-19T07:17:26;9.38;;;5.22;;
36211;SDS011;22247;48.586;13.492;2023-11-19T07:19:51;9.55;;;4.65;;
36211;SDS011;22247;48.586;13.492;2023-11-19T07:22:16;13.98;;;5.13;;
36211;SDS011;22247;48.586;13.492;2023-11-19T07:27:07;11.15;;;5.15;;
36211;SDS011;22247;48.586;13.492;2023-11-19T07:29:32;10.05;;;5.45;;
36211;SDS011;22247;48.586;13.492;2023-11-19T07:31:57;12.18;;;6.40;;
36211;SDS011;22247;48.586;13.492;2023-11-19T07:34:25;11.27;;;5.80;;
36211;SDS011;22247;48.586;13.492;2023-11-19T07:36:50;12.20;;;5.75;;
36211;SDS011;22247;48.586;13.492;2023-11-19T07:39:15;12.23;;;5.60;;
36211;SDS011;22247;48.586;13.492;2023-11-19T07:41:42;11.38;;;6.05;;
36211;SDS011;22247;48.586;13.492;2023-11-19T07:44:07;12.98;;;6.43;;
36211;SDS011;22247;48.586;13.492;2023-11-19T07:46:32;15.68;;;6.57;;
36211;SDS011;22247;48.586;13.492;2023-11-19T07:51:22;11.18;;;5.68;;
36211;SDS011;22247;48.586;13.492;2023-11-19T07:53:47;14.52;;;7.03;;
36211;SDS011;22247;48.586;13.492;2023-11-19T07:56:15;12.80;;;6.63;;
36211;SDS011;22247;48.586;13.492;2023-11-19T07:58:41;15.93;;;6.63;;
36211;SDS011;22247;48.586;13.492;2023-11-19T08:01:06;14.05;;;6.60;;
36211;SDS011;22247;48.586;13.492;2023-11-19T08:03:31;13.57;;;6.88;;
36211;SDS011;22247;48.586;13.492;2023-11-19T08:05:58;12.68;;;7.05;;
36211;SDS011;22247;48.586;13.492;2023-11-19T08:08:23;11.02;;;5.70;;
36211;SDS011;22247;48.586;13.492;2023-11-19T08:10:49;19.15;;;10.40;;
36211;SDS011;22247;48.586;13.492;2023-11-19T08:13:15;14.10;;;7.15;;
36211;SDS011;22247;48.586;13.492;2023-11-19T08:15:42;27.23;;;10.27;;
36211;SDS011;22247;48.586;13.492;2023-11-19T08:18:07;14.88;;;7.72;;
36211;SDS011;22247;48.586;13.492;2023-11-19T08:20:33;7.03;;;4.10;;
36211;SDS011;22247;48.586;13.492;2023-11-19T08:25:25;11.43;;;5.72;;
36211;SDS011;22247;48.586;13.492;2023-11-19T08:27:50;13.23;;;5.80;;
36211;SDS011;22247;48.586;13.492;2023-11-19T08:30:15;10.13;;;5.35;;
36211;SDS011;22247;48.586;13.492;2023-11-19T08:32:43;9.00;;;4.40;;
36211;SDS011;22247;48.586;13.492;2023-11-19T08:35:08;8.00;;;4.15;;
36211;SDS011;22247;48.586;13.492;2023-11-19T08:37:33;8.10;;;4.65;;
36211;SDS011;22247;48.586;13.492;2023-11-19T08:40:02;10.80;;;4.78;;
36211;SDS011;22247;48.586;13.492;2023-11-19T08:42:28;9.52;;;5.20;;
36211;SDS011;22247;48.586;13.492;2023-11-19T08:44:53;7.20;;;4.38;;
36211;SDS011;22247;48.586;13.492;2023-11-19T08:49:44;8.23;;;4.60;;
36211;SDS011;22247;48.586;13.492;2023-11-19T08:52:09;8.00;;;4.85;;
36211;SDS011;22247;48.586;13.492;2023-11-19T08:54:34;9.25;;;4.90;;
36211;SDS011;22247;48.586;13.492;2023-11-19T08:57:00;8.02;;;4.68;;
36211;SDS011;22247;48.586;13.492;2023-11-19T08:59:25;13.95;;;7.57;;
36211;SDS011;22247;48.586;13.492;2023-11-19T09:01:50;9.80;;;5.38;;
36211;SDS011;22247;48.586;13.492;2023-11-19T09:04:15;8.48;;;4.45;;
36211;SDS011;22247;48.586;13.492;2023-11-19T09:06:46;9.40;;;5.50;;
36211;SDS011;22247;48.586;13.492;2023-11-19T09:09:11;9.18;;;5.07;;
36211;SDS011;22247;48.586;13.492;2023-11-19T09:11:36;8.02;;;4.60;;
36211;SDS011;22247;48.586;13.492;2023-11-19T09:14:01;7.75;;;4.13;;
36211;SDS011;22247;48.586;13.492;2023-11-19T09:16:26;7.60;;;4.20;;
36211;SDS011;22247;48.586;13.492;2023-11-19T09:18:51;7.68;;;4.55;;
36211;SDS011;22247;48.586;13.492;2023-11-19T09:21:16;10.23;;;5.97;;
36211;SDS011;22247;48.586;13.492;2023-11-19T09:23:41;8.38;;;4.72;;
36211;SDS011;22247;48.586;13.492;2023-11-19T09:26:08;10.40;;;5.65;;
36211;SDS011;22247;48.586;13.492;2023-11-19T09:28:38;10.38;;;4.50;;
36211;SDS011;22247;48.586;13.492;2023-11-19T09:31:12;7.55;;;4.25;;
36211;SDS011;22247;48.586;13.492;2023-11-19T09:33:37;7.60;;;4.35;;
36211;SDS011;22247;48.586;13.492;2023-11-19T09:36:02;6.72;;;4.63;;
36211;SDS011;22247;48.586;13.492;2023-11-19T09:38:27;9.13;;;5.15;;
36211;SDS011;22247;48.586;13.492;2023-11-19T09:40:52;5.40;;;3.72;;
36211;SDS011;22247;48.586;13.492;2023-11-19T09:43:17;5.45;;;3.42;;
36211;SDS011;22247;48.586;13.492;2023-11-19T09:45:47;6.90;;;3.63;;
36211;SDS011;22247;48.586;13.492;2023-11-19T09:48:19;6.57;;;3.80;;
36211;SDS011;22247;48.586;13.492;2023-11-19T09:50:46;10.02;;;5.57;;
36211;SDS011;22247;48.586;13.492;2023-11-19T09:53:12;6.63;;;3.47;;
36211;SDS011;22247;48.586;13.492;2023-11-19T09:58:02;6.15;;;4.18;;
36211;SDS011;22247;48.586;13.492;2023-11-19T10:02:54;6.38;;;3.35;;
36211;SDS011;22247;48.586;13.492;2023-11-19T10:05:21;6.32;;;3.22;;
36211;SDS011;22247;48.586;13.492;2023-11-19T10:07:48;5.28;;;2.90;;
36211;SDS011;22247;48.586;13.492;2023-11-19T10:12:42;4.32;;;2.70;;
36211;SDS011;22247;48.586;13.492;2023-11-19T10:15:07;5.63;;;2.78;;
36211;SDS011;22247;48.586;13.492;2023-11-19T10:17:37;4.78;;;2.45;;
36211;SDS011;22247;48.586;13.492;2023-11-19T10:20:02;5.22;;;2.70;;
36211;SDS011;22247;48.586;13.492;2023-11-19T10:22:28;6.50;;;4.05;;
36211;SDS011;22247;48.586;13.492;2023-11-19T10:24:56;4.78;;;2.90;;
36211;SDS011;22247;48.586;13.492;2023-11-19T10:27:23;6.25;;;3.25;;
36211;SDS011;22247;48.586;13.492;2023-11-19T10:29:49;6.00;;;3.05;;
36211;SDS011;22247;48.586;13.492;2023-11-19T10:32:14;6.25;;;3.55;;
36211;SDS011;22247;48.586;13.492;2023-11-19T10:34:39;4.40;;;2.65;;
36211;SDS011;22247;48.586;13.492;2023-11-19T10:37:05;5.55;;;3.20;;
36211;SDS011;22247;48.586;13.492;2023-11-19T10:42:17;5.10;;;3.00;;
36211;SDS011;22247;48.586;13.492;2023-11-19T10:44:45;5.05;;;2.90;;
36211;SDS011;22247;48.586;13.492;2023-11-19T10:47:10;3.65;;;2.20;;
36211;SDS011;22247;48.586;13.492;2023-11-19T10:49:35;3.63;;;2.40;;
36211;SDS011;22247;48.586;13.492;2023-11-19T10:52:02;4.72;;;2.67;;
36211;SDS011;22247;48.586;13.492;2023-11-19T10:56:57;10.18;;;5.38;;
36211;SDS011;22247;48.586;13.492;2023-11-19T10:59:28;11.25;;;3.90;;
36211;SDS011;22247;48.586;13.492;2023-11-19T11:01:54;4.57;;;2.92;;
36211;SDS011;22247;48.586;13.492;2023-11-19T11:04:22;3.30;;;2.13;;
36211;SDS011;22247;48.586;13.492;2023-11-19T11:06:51;3.63;;;2.10;;
36211;SDS011;22247;48.586;13.492;2023-11-19T11:09:16;3.38;;;2.42;;
36211;SDS011;22247;48.586;13.492;2023-11-19T11:11:41;4.38;;;2.90;;
36211;SDS011;22247;48.586;13.492;2023-11-19T11:14:07;5.15;;;3.53;;
36211;SDS011;22247;48.586;13.492;2023-11-19T11:16:35;5.05;;;2.78;;
36211;SDS011;22247;48.586;13.492;2023-11-19T11:19:02;4.72;;;3.08;;
36211;SDS011;22247;48.586;13.492;2023-11-19T11:21:30;5.07;;;3.20;;
36211;SDS011;22247;48.586;13.492;2023-11-19T11:29:05;7.60;;;3.20;;
36211;SDS011;22247;48.586;13.492;2023-11-19T11:39:17;8.75;;;4.45;;
36211;SDS011;22247;48.586;13.492;2023-11-19T11:41:42;7.03;;;4.07;;
36211;SDS011;22247;48.586;13.492;2023-11-19T11:44:08;8.02;;;3.70;;
36211;SDS011;22247;48.586;13.492;2023-11-19T11:49:03;8.40;;;5.22;;
36211;SDS011;22247;48.586;13.492;2023-11-19T11:54:08;5.80;;;3.75;;
36211;SDS011;22247;48.586;13.492;2023-11-19T11:58:58;4.13;;;2.85;;
36211;SDS011;22247;48.586;13.492;2023-11-19T12:01:25;5.25;;;3.20;;
36211;SDS011;22247;48.586;13.492;2023-11-19T12:03:52;7.85;;;4.05;;
36211;SDS011;22247;48.586;13.492;2023-11-19T12:06:22;12.00;;;7.47;;
36211;SDS011;22247;48.586;13.492;2023-11-19T12:08:50;6.13;;;4.15;;
36211;SDS011;22247;48.586;13.492;2023-11-19T12:11:16;7.15;;;4.45;;
36211;SDS011;22247;48.586;13.492;2023-11-19T12:13:53;11.90;;;5.90;;
36211;SDS011;22247;48.586;13.492;2023-11-19T12:16:20;8.70;;;5.50;;
36211;SDS011;22247;48.586;13.492;2023-11-19T12:18:45;11.70;;;7.13;;
36211;SDS011;22247;48.586;13.492;2023-11-19T12:21:10;8.70;;;5.50;;
36211;SDS011;22247;48.586;13.492;2023-11-19T12:26:00;10.60;;;6.25;;
36211;SDS011;22247;48.586;13.492;2023-11-19T12:30:51;12.82;;;7.05;;
36211;SDS011;22247;48.586;13.492;2023-11-19T12:33:17;15.32;;;9.32;;
36211;SDS011;22247;48.586;13.492;2023-11-19T12:38:07;12.57;;;7.15;;
36211;SDS011;22247;48.586;13.492;2023-11-19T12:40:34;10.30;;;6.82;;
36211;SDS011;22247;48.586;13.492;2023-11-19T12:42:59;10.82;;;6.88;;
36211;SDS011;22247;48.586;13.492;2023-11-19T12:45:34;14.20;;;7.65;;
36211;SDS011;22247;48.586;13.492;2023-11-19T12:48:05;12.00;;;7.65;;
36211;SDS011;22247;48.586;13.492;2023-11-19T12:50:49;10.77;;;6.45;;
36211;SDS011;22247;48.586;13.492;2023-11-19T12:53:15;13.75;;;7.90;;
36211;SDS011;22247;48.586;13.492;2023-11-19T12:55:40;15.30;;;8.35;;
36211;SDS011;22247;48.586;13.492;2023-11-19T12:58:05;14.18;;;8.52;;
36211;SDS011;22247;48.586;13.492;2023-11-19T13:00:33;13.40;;;8.05;;
36211;SDS011;22247;48.586;13.492;2023-11-19T13:02:58;11.60;;;7.22;;
36211;SDS011;22247;48.586;13.492;2023-11-19T13:07:50;15.85;;;8.77;;
36211;SDS011;22247;48.586;13.492;2023-11-19T13:10:15;10.82;;;6.53;;
36211;SDS011;22247;48.586;13.492;2023-11-19T13:12:41;13.60;;;6.40;;
36211;SDS011;22247;48.586;13.492;2023-11-19T13:15:08;9.63;;;6.05;;
36211;SDS011;22247;48.586;13.492;2023-11-19T13:17:47;11.10;;;7.43;;
36211;SDS011;22247;48.586;13.492;2023-11-19T13:20:12;12.68;;;7.68;;
36211;SDS011;22247;48.586;13.492;2023-11-19T13:22:38;11.77;;;6.55;;
36211;SDS011;22247;48.586;13.492;2023-11-19T13:25:05;9.77;;;5.45;;
36211;SDS011;22247;48.586;13.492;2023-11-19T13:27:30;10.30;;;5.70;;
36211;SDS011;22247;48.586;13.492;2023-11-19T13:29:55;10.02;;;5.15;;
36211;SDS011;22247;48.586;13.492;2023-11-19T13:32:20;10.00;;;5.95;;
36211;SDS011;22247;48.586;13.492;2023-11-19T13:34:45;8.77;;;5.45;;
36211;SDS011;22247;48.586;13.492;2023-11-19T13:37:10;8.02;;;5.55;;
36211;SDS011;22247;48.586;13.492;2023-11-19T13:39:35;10.70;;;6.10;;
36211;SDS011;22247;48.586;13.492;2023-11-19T13:42:03;11.30;;;5.80;;
36211;SDS011;22247;48.586;13.492;2023-11-19T13:44:28;13.52;;;8.65;;
36211;SDS011;22247;48.586;13.492;2023-11-19T13:46:53;14.63;;;7.55;;
36211;SDS011;22247;48.586;13.492;2023-11-19T13:49:18;11.70;;;6.40;;
36211;SDS011;22247;48.586;13.492;2023-11-19T13:51:44;11.43;;;6.43;;
36211;SDS011;22247;48.586;13.492;2023-11-19T13:54:09;12.57;;;7.25;;
36211;SDS011;22247;48.586;13.492;2023-11-19T13:56:34;15.30;;;7.35;;
36211;SDS011;22247;48.586;13.492;2023-11-19T13:58:59;15.02;;;7.75;;
36211;SDS011;22247;48.586;13.492;2023-11-19T14:01:25;12.73;;;7.68;;
36211;SDS011;22247;48.586;13.492;2023-11-19T14:03:50;13.57;;;6.22;;
36211;SDS011;22247;48.586;13.492;2023-11-19T14:06:18;8.70;;;5.50;;
36211;SDS011;22247;48.586;13.492;2023-11-19T14:08:43;7.03;;;4.72;;
36211;SDS011;22247;48.586;13.492;2023-11-19T14:11:08;8.95;;;5.25;;
36211;SDS011;22247;48.586;13.492;2023-11-19T14:13:33;11.45;;;5.10;;
36211;SDS011;22247;48.586;13.492;2023-11-19T14:15:58;9.98;;;5.30;;
36211;SDS011;22247;48.586;13.492;2023-11-19T14:18:23;9.10;;;5.88;;
36211;SDS011;22247;48.586;13.492;2023-11-19T14:20:48;9.65;;;5.43;;
36211;SDS011;22247;48.586;13.492;2023-11-19T14:23:13;9.25;;;5.65;;
36211;SDS011;22247;48.586;13.492;2023-11-19T14:25:38;9.55;;;5.93;;
36211;SDS011;22247;48.586;13.492;2023-11-19T14:30:31;13.20;;;5.90;;
36211;SDS011;22247;48.586;13.492;2023-11-19T14:32:56;11.07;;;6.35;;
36211;SDS011;22247;48.586;13.492;2023-11-19T14:35:21;10.73;;;6.55;;
36211;SDS011;22247;48.586;13.492;2023-11-19T14:37:46;10.02;;;5.65;;
36211;SDS011;22247;48.586;13.492;2023-11-19T14:40:11;11.10;;;6.93;;
36211;SDS011;22247;48.586;13.492;2023-11-19T14:42:36;11.98;;;7.10;;
36211;SDS011;22247;48.586;13.492;2023-11-19T14:45:03;10.40;;;6.32;;
36211;SDS011;22247;48.586;13.492;2023-11-19T14:47:28;14.00;;;7.93;;
36211;SDS011;22247;48.586;13.492;2023-11-19T14:49:54;17.48;;;8.13;;
36211;SDS011;22247;48.586;13.492;2023-11-19T14:52:19;14.15;;;7.10;;
36211;SDS011;22247;48.586;13.492;2023-11-19T14:54:44;12.65;;;7.05;;
36211;SDS011;22247;48.586;13.492;2023-11-19T14:59:35;13.70;;;6.75;;
36211;SDS011;22247;48.586;13.492;2023-11-19T15:02:00;13.15;;;7.15;;
36211;SDS011;22247;48.586;13.492;2023-11-19T15:04:25;16.65;;;7.47;;
36211;SDS011;22247;48.586;13.492;2023-11-19T15:06:50;11.32;;;6.55;;
36211;SDS011;22247;48.586;13.492;2023-11-19T15:09:15;14.25;;;7.43;;
36211;SDS011;22247;48.586;13.492;2023-11-19T15:11:41;14.90;;;7.47;;
36211;SDS011;22247;48.586;13.492;2023-11-19T15:14:06;19.35;;;8.60;;
36211;SDS011;22247;48.586;13.492;2023-11-19T15:16:31;14.15;;;8.15;;
36211;SDS011;22247;48.586;13.492;2023-11-19T15:18:58;15.70;;;7.28;;
36211;SDS011;22247;48.586;13.492;2023-11-19T15:23:48;11.60;;;6.43;;
36211;SDS011;22247;48.586;13.492;2023-11-19T15:26:13;14.45;;;7.43;;
36211;SDS011;22247;48.586;13.492;2023-11-19T15:28:38;13.07;;;7.88;;
36211;SDS011;22247;48.586;13.492;2023-11-19T15:31:03;14.45;;;7.85;;
36211;SDS011;22247;48.586;13.492;2023-11-19T15:35:55;17.45;;;8.30;;
36211;SDS011;22247;48.586;13.492;2023-11-19T15:38:20;15.70;;;7.88;;
36211;SDS011;22247;48.586;13.492;2023-11-19T15:40:46;25.80;;;8.60;;
36211;SDS011;22247;48.586;13.492;2023-11-19T15:43:11;15.10;;;8.27;;
36211;SDS011;22247;48.586;13.492;2023-11-19T15:45:36;18.38;;;9.15;;
36211;SDS011;22247;48.586;13.492;2023-11-19T15:48:03;21.75;;;9.68;;